sensor_id;sensor_type;location;lat;lon;timestamp;pressure;altitude;pressure_sealevel;temperature;humidity
83941;BME280;73976;68.386;23.636;2024-03-17T00:01:50;97724.75;;;-14.11;77.13
83941;BME280;73976;68.386;23.636;2024-03-17T00:06:00;97733.69;;;-13.99;75.65
83941;BME280;73976;68.386;23.636;2024-03-17T00:10:02;97748.28;;;-14.33;72.65
83941;BME280;73976;68.386;23.636;2024-03-17T00:14:03;97690.69;;;-14.57;73.93
83941;BME280;73976;68.386;23.636;2024-03-17T00:18:06;97747.44;;;-14.06;74.28
83941;BME280;73976;68.386;23.636;2024-03-17T00:22:07;97699.69;;;-14.47;70.31
83941;BME280;73976;68.386;23.636;2024-03-17T00:26:10;97760.69;;;-14.53;71.08
83941;BME280;73976;68.386;23.636;2024-03-17T00:30:11;97768.53;;;-14.62;72.70
83941;BME280;73976;68.386;23.636;2024-03-17T00:34:16;97782.94;;;-14.64;69.62
83941;BME280;73976;68.386;23.636;2024-03-17T00:38:17;97795.00;;;-15.04;69.80
83941;BME280;73976;68.386;23.636;2024-03-17T00:42:19;97790.59;;;-14.96;71.72
83941;BME280;73976;68.386;23.636;2024-03-17T00:46:21;97803.16;;;-14.93;72.17
83941;BME280;73976;68.386;23.636;2024-03-17T00:50:22;97800.44;;;-14.86;74.42
83941;BME280;73976;68.386;23.636;2024-03-17T00:54:23;97801.97;;;-14.80;73.57
83941;BME280;73976;68.386;23.636;2024-03-17T00:58:25;97739.63;;;-15.84;66.98
83941;BME280;73976;68.386;23.636;2024-03-17T01:02:26;97811.69;;;-16.41;65.18
83941;BME280;73976;68.386;23.636;2024-03-17T01:06:28;97821.84;;;-17.32;64.36
83941;BME280;73976;68.386;23.636;2024-03-17T01:10:29;97819.47;;;-17.93;65.72
83941;BME280;73976;68.386;23.636;2024-03-17T01:14:31;97852.03;;;-17.79;68.99
83941;BME280;73976;68.386;23.636;2024-03-17T01:18:32;97850.56;;;-17.39;71.32
83941;BME280;73976;68.386;23.636;2024-03-17T01:22:33;97858.03;;;-17.86;66.50
83941;BME280;73976;68.386;23.636;2024-03-17T01:26:35;97860.06;;;-17.54;75.19
83941;BME280;73976;68.386;23.636;2024-03-17T01:30:37;97875.16;;;-17.00;74.85
83941;BME280;73976;68.386;23.636;2024-03-17T01:34:40;97873.13;;;-16.83;74.19
83941;BME280;73976;68.386;23.636;2024-03-17T01:38:42;97893.38;;;-16.86;75.08
83941;BME280;73976;68.386;23.636;2024-03-17T01:42:43;97866.69;;;-16.99;71.29
83941;BME280;73976;68.386;23.636;2024-03-17T01:46:45;97887.00;;;-16.58;77.66
83941;BME280;73976;68.386;23.636;2024-03-17T01:50:48;97874.00;;;-16.40;76.02
83941;BME280;73976;68.386;23.636;2024-03-17T01:54:50;97901.72;;;-16.81;68.98
83941;BME280;73976;68.386;23.636;2024-03-17T01:58:51;97902.00;;;-17.49;68.76
83941;BME280;73976;68.386;23.636;2024-03-17T02:02:53;97911.31;;;-18.15;64.65
83941;BME280;73976;68.386;23.636;2024-03-17T02:06:54;97929.97;;;-19.12;64.16
83941;BME280;73976;68.386;23.636;2024-03-17T02:10:55;97940.47;;;-19.71;64.71
83941;BME280;73976;68.386;23.636;2024-03-17T02:14:58;97941.63;;;-20.25;65.39
83941;BME280;73976;68.386;23.636;2024-03-17T02:18:59;97942.28;;;-20.02;72.31
83941;BME280;73976;68.386;23.636;2024-03-17T02:23:01;97949.56;;;-19.55;72.51
83941;BME280;73976;68.386;23.636;2024-03-17T02:27:02;97931.41;;;-19.93;69.73
83941;BME280;73976;68.386;23.636;2024-03-17T02:31:04;97951.34;;;-19.69;71.38
83941;BME280;73976;68.386;23.636;2024-03-17T02:35:06;97926.84;;;-19.38;72.68
83941;BME280;73976;68.386;23.636;2024-03-17T02:39:07;97922.34;;;-20.24;66.28
83941;BME280;73976;68.386;23.636;2024-03-17T02:43:27;97959.22;;;-20.34;68.38
83941;BME280;73976;68.386;23.636;2024-03-17T02:47:28;97969.28;;;-20.49;66.40
83941;BME280;73976;68.386;23.636;2024-03-17T02:51:31;97949.19;;;-20.34;78.24
83941;BME280;73976;68.386;23.636;2024-03-17T02:55:32;97924.59;;;-19.79;75.23
83941;BME280;73976;68.386;23.636;2024-03-17T02:59:33;97945.63;;;-19.93;72.77
83941;BME280;73976;68.386;23.636;2024-03-17T03:03:35;97871.59;;;-20.98;68.17
83941;BME280;73976;68.386;23.636;2024-03-17T03:07:37;98000.22;;;-20.51;68.13
83941;BME280;73976;68.386;23.636;2024-03-17T03:11:39;98007.81;;;-20.96;67.12
83941;BME280;73976;68.386;23.636;2024-03-17T03:15:41;98009.47;;;-20.94;68.75
83941;BME280;73976;68.386;23.636;2024-03-17T03:19:43;98011.16;;;-20.84;69.66
83941;BME280;73976;68.386;23.636;2024-03-17T03:23:44;98015.31;;;-20.89;70.60
83941;BME280;73976;68.386;23.636;2024-03-17T03:27:46;98019.47;;;-20.46;73.84
83941;BME280;73976;68.386;23.636;2024-03-17T03:31:47;97991.00;;;-20.33;74.99
83941;BME280;73976;68.386;23.636;2024-03-17T03:35:49;97967.44;;;-20.11;80.16
83941;BME280;73976;68.386;23.636;2024-03-17T03:39:51;98035.94;;;-19.66;74.92
83941;BME280;73976;68.386;23.636;2024-03-17T03:43:52;98022.75;;;-20.20;69.91
83941;BME280;73976;68.386;23.636;2024-03-17T03:47:54;97924.25;;;-21.27;68.66
83941;BME280;73976;68.386;23.636;2024-03-17T03:51:55;97961.84;;;-21.07;69.16
83941;BME280;73976;68.386;23.636;2024-03-17T03:55:57;98045.44;;;-21.04;66.54
83941;BME280;73976;68.386;23.636;2024-03-17T03:59:59;98037.06;;;-21.16;70.73
83941;BME280;73976;68.386;23.636;2024-03-17T04:04:01;98034.50;;;-21.49;68.34
83941;BME280;73976;68.386;23.636;2024-03-17T04:08:04;98033.63;;;-21.74;68.42
83941;BME280;73976;68.386;23.636;2024-03-17T04:12:06;98057.03;;;-21.49;71.43
83941;BME280;73976;68.386;23.636;2024-03-17T04:16:08;97935.84;;;-22.28;69.41
83941;BME280;73976;68.386;23.636;2024-03-17T04:20:10;98022.75;;;-21.71;72.80
83941;BME280;73976;68.386;23.636;2024-03-17T04:24:14;98054.59;;;-20.94;75.52
83941;BME280;73976;68.386;23.636;2024-03-17T04:28:16;97968.53;;;-21.75;70.76
83941;BME280;73976;68.386;23.636;2024-03-17T04:32:17;98072.84;;;-21.74;67.43
83941;BME280;73976;68.386;23.636;2024-03-17T04:36:18;98083.59;;;-22.01;66.52
83941;BME280;73976;68.386;23.636;2024-03-17T04:40:20;98078.41;;;-22.31;67.43
83941;BME280;73976;68.386;23.636;2024-03-17T04:44:21;98073.50;;;-22.16;70.95
83941;BME280;73976;68.386;23.636;2024-03-17T04:48:23;98081.13;;;-21.95;71.16
83941;BME280;73976;68.386;23.636;2024-03-17T04:52:25;98093.75;;;-21.59;72.18
83941;BME280;73976;68.386;23.636;2024-03-17T04:56:26;98046.16;;;-21.77;69.10
83941;BME280;73976;68.386;23.636;2024-03-17T05:00:28;98102.88;;;-21.70;69.23
83941;BME280;73976;68.386;23.636;2024-03-17T05:04:35;98079.41;;;-21.99;70.89
83941;BME280;73976;68.386;23.636;2024-03-17T05:08:46;98144.63;;;-21.70;69.85
83941;BME280;73976;68.386;23.636;2024-03-17T05:12:57;98112.91;;;-21.70;69.92
83941;BME280;73976;68.386;23.636;2024-03-17T05:16:58;98087.75;;;-21.98;70.64
83941;BME280;73976;68.386;23.636;2024-03-17T05:21:00;98007.44;;;-22.51;70.03
83941;BME280;73976;68.386;23.636;2024-03-17T05:25:05;98116.25;;;-21.77;70.15
83941;BME280;73976;68.386;23.636;2024-03-17T05:29:07;98133.84;;;-21.57;70.46
83941;BME280;73976;68.386;23.636;2024-03-17T05:33:10;98127.25;;;-21.25;71.90
83941;BME280;73976;68.386;23.636;2024-03-17T05:37:12;98123.09;;;-21.25;69.61
83941;BME280;73976;68.386;23.636;2024-03-17T05:41:13;98138.94;;;-21.33;69.28
83941;BME280;73976;68.386;23.636;2024-03-17T05:45:15;98139.78;;;-21.27;69.79
83941;BME280;73976;68.386;23.636;2024-03-17T05:49:17;98153.19;;;-21.23;69.54
83941;BME280;73976;68.386;23.636;2024-03-17T05:53:23;98159.94;;;-20.83;75.68
83941;BME280;73976;68.386;23.636;2024-03-17T05:57:27;98139.91;;;-20.62;75.39
83941;BME280;73976;68.386;23.636;2024-03-17T06:01:29;98074.66;;;-20.82;74.84
83941;BME280;73976;68.386;23.636;2024-03-17T06:05:39;98175.09;;;-20.19;71.77
83941;BME280;73976;68.386;23.636;2024-03-17T06:09:43;98171.72;;;-20.16;72.84
83941;BME280;73976;68.386;23.636;2024-03-17T06:13:48;98177.53;;;-19.82;75.66
83941;BME280;73976;68.386;23.636;2024-03-17T06:17:50;98061.25;;;-20.24;72.65
83941;BME280;73976;68.386;23.636;2024-03-17T06:21:55;98126.41;;;-19.66;74.99
83941;BME280;73976;68.386;23.636;2024-03-17T06:25:56;98176.34;;;-18.90;75.82
83941;BME280;73976;68.386;23.636;2024-03-17T06:29:58;98182.06;;;-18.56;77.60
83941;BME280;73976;68.386;23.636;2024-03-17T06:33:59;98193.44;;;-18.10;80.10
83941;BME280;73976;68.386;23.636;2024-03-17T06:38:00;98196.97;;;-17.41;81.58
83941;BME280;73976;68.386;23.636;2024-03-17T06:42:02;98190.75;;;-16.44;86.51
83941;BME280;73976;68.386;23.636;2024-03-17T06:46:04;98195.41;;;-15.65;84.36
83941;BME280;73976;68.386;23.636;2024-03-17T06:50:06;98191.44;;;-15.32;83.47
83941;BME280;73976;68.386;23.636;2024-03-17T06:54:11;98203.88;;;-15.20;79.53
83941;BME280;73976;68.386;23.636;2024-03-17T06:58:18;98209.84;;;-14.80;83.17
83941;BME280;73976;68.386;23.636;2024-03-17T07:02:25;98105.56;;;-15.02;82.97
83941;BME280;73976;68.386;23.636;2024-03-17T07:06:26;98219.25;;;-14.08;79.27
83941;BME280;73976;68.386;23.636;2024-03-17T07:10:28;98211.53;;;-13.68;81.23
83941;BME280;73976;68.386;23.636;2024-03-17T07:14:29;98219.88;;;-13.28;81.03
83941;BME280;73976;68.386;23.636;2024-03-17T07:19:11;98235.13;;;-12.67;81.70
83941;BME280;73976;68.386;23.636;2024-03-17T07:23:12;98244.84;;;-12.21;80.65
83941;BME280;73976;68.386;23.636;2024-03-17T07:27:14;98255.78;;;-11.90;79.94
83941;BME280;73976;68.386;23.636;2024-03-17T07:31:15;98253.97;;;-11.60;77.98
83941;BME280;73976;68.386;23.636;2024-03-17T07:35:17;98257.72;;;-11.18;78.59
83941;BME280;73976;68.386;23.636;2024-03-17T07:39:19;98248.78;;;-11.05;76.69
83941;BME280;73976;68.386;23.636;2024-03-17T07:46:22;98256.41;;;-10.32;75.45
83941;BME280;73976;68.386;23.636;2024-03-17T07:50:23;98261.47;;;-10.07;74.52
83941;BME280;73976;68.386;23.636;2024-03-17T07:54:25;98260.34;;;-9.79;73.13
83941;BME280;73976;68.386;23.636;2024-03-17T07:58:27;98263.25;;;-9.44;72.85
83941;BME280;73976;68.386;23.636;2024-03-17T08:02:29;98188.16;;;-9.62;70.21
83941;BME280;73976;68.386;23.636;2024-03-17T08:06:31;98263.22;;;-8.81;68.98
83941;BME280;73976;68.386;23.636;2024-03-17T08:10:32;98273.63;;;-8.46;65.83
83941;BME280;73976;68.386;23.636;2024-03-17T08:14:34;98271.94;;;-7.00;65.19
83941;BME280;73976;68.386;23.636;2024-03-17T08:18:35;98220.06;;;-5.00;56.95
83941;BME280;73976;68.386;23.636;2024-03-17T08:22:37;98271.72;;;-3.45;51.91
83941;BME280;73976;68.386;23.636;2024-03-17T08:26:39;98250.56;;;-3.64;51.04
83941;BME280;73976;68.386;23.636;2024-03-17T08:30:41;98234.22;;;-3.24;50.03
83941;BME280;73976;68.386;23.636;2024-03-17T08:34:46;98263.59;;;-2.74;48.41
83941;BME280;73976;68.386;23.636;2024-03-17T08:38:48;98290.94;;;-2.57;48.21
83941;BME280;73976;68.386;23.636;2024-03-17T08:42:50;98258.22;;;-3.10;50.72
83941;BME280;73976;68.386;23.636;2024-03-17T08:46:51;98238.47;;;-2.84;48.33
83941;BME280;73976;68.386;23.636;2024-03-17T08:50:53;98240.72;;;-2.53;48.36
83941;BME280;73976;68.386;23.636;2024-03-17T08:54:55;98243.06;;;-2.63;48.22
83941;BME280;73976;68.386;23.636;2024-03-17T08:58:56;98247.44;;;-2.38;47.67
83941;BME280;73976;68.386;23.636;2024-03-17T09:02:58;98303.53;;;-2.01;47.41
83941;BME280;73976;68.386;23.636;2024-03-17T09:06:59;98232.34;;;-2.44;47.09
83941;BME280;73976;68.386;23.636;2024-03-17T09:11:11;98281.28;;;-2.41;47.88
83941;BME280;73976;68.386;23.636;2024-03-17T09:15:13;98260.72;;;-3.08;49.81
83941;BME280;73976;68.386;23.636;2024-03-17T09:19:15;98285.69;;;-3.35;51.04
83941;BME280;73976;68.386;23.636;2024-03-17T09:23:17;98292.75;;;-3.51;50.46
83941;BME280;73976;68.386;23.636;2024-03-17T09:27:18;98293.19;;;-3.04;50.37
83941;BME280;73976;68.386;23.636;2024-03-17T09:31:22;98228.97;;;-3.63;51.68
83941;BME280;73976;68.386;23.636;2024-03-17T09:35:24;98285.88;;;-2.98;49.61
83941;BME280;73976;68.386;23.636;2024-03-17T09:39:26;98302.78;;;-2.80;50.10
83941;BME280;73976;68.386;23.636;2024-03-17T09:43:32;98313.66;;;-3.42;50.50
83941;BME280;73976;68.386;23.636;2024-03-17T09:47:34;98257.38;;;-4.34;52.32
83941;BME280;73976;68.386;23.636;2024-03-17T09:51:39;98254.69;;;-4.90;54.41
83941;BME280;73976;68.386;23.636;2024-03-17T09:55:40;98332.72;;;-4.58;55.96
83941;BME280;73976;68.386;23.636;2024-03-17T09:59:41;98289.00;;;-5.05;56.55
83941;BME280;73976;68.386;23.636;2024-03-17T10:03:47;98351.78;;;-4.76;57.58
83941;BME280;73976;68.386;23.636;2024-03-17T10:08:05;98287.63;;;-5.26;54.98
83941;BME280;73976;68.386;23.636;2024-03-17T10:12:25;98264.47;;;-5.57;57.53
83941;BME280;73976;68.386;23.636;2024-03-17T10:16:27;98296.16;;;-5.25;58.28
83941;BME280;73976;68.386;23.636;2024-03-17T10:20:30;98289.63;;;-5.31;56.24
83941;BME280;73976;68.386;23.636;2024-03-17T10:24:31;98353.38;;;-4.89;57.15
83941;BME280;73976;68.386;23.636;2024-03-17T10:28:35;98365.75;;;-4.96;56.28
83941;BME280;73976;68.386;23.636;2024-03-17T10:32:36;98299.00;;;-5.45;57.61
83941;BME280;73976;68.386;23.636;2024-03-17T10:36:37;98371.81;;;-4.81;56.62
83941;BME280;73976;68.386;23.636;2024-03-17T10:40:39;98261.06;;;-5.42;56.41
83941;BME280;73976;68.386;23.636;2024-03-17T10:44:41;98377.47;;;-4.75;57.70
83941;BME280;73976;68.386;23.636;2024-03-17T10:48:47;98279.06;;;-5.26;55.86
83941;BME280;73976;68.386;23.636;2024-03-17T10:52:50;98338.53;;;-5.15;57.64
83941;BME280;73976;68.386;23.636;2024-03-17T10:56:53;98386.63;;;-4.85;55.98
83941;BME280;73976;68.386;23.636;2024-03-17T11:00:56;98326.16;;;-5.09;56.44
83941;BME280;73976;68.386;23.636;2024-03-17T11:05:00;98329.47;;;-5.07;54.71
83941;BME280;73976;68.386;23.636;2024-03-17T11:09:01;98386.91;;;-4.60;55.50
83941;BME280;73976;68.386;23.636;2024-03-17T11:13:05;98385.56;;;-4.51;53.66
83941;BME280;73976;68.386;23.636;2024-03-17T11:17:18;98334.72;;;-4.20;52.58
83941;BME280;73976;68.386;23.636;2024-03-17T11:21:24;98320.22;;;-3.78;52.38
83941;BME280;73976;68.386;23.636;2024-03-17T11:29:30;98368.59;;;-2.71;49.26
83941;BME280;73976;68.386;23.636;2024-03-17T11:37:44;98328.31;;;-3.28;50.95
83941;BME280;73976;68.386;23.636;2024-03-17T11:41:47;98338.38;;;-2.97;50.51
83941;BME280;73976;68.386;23.636;2024-03-17T11:45:54;98302.59;;;-3.30;49.43
83941;BME280;73976;68.386;23.636;2024-03-17T11:49:57;98340.75;;;-2.94;50.43
83941;BME280;73976;68.386;23.636;2024-03-17T11:53:59;98404.66;;;-2.43;47.95
83941;BME280;73976;68.386;23.636;2024-03-17T11:58:00;98304.31;;;-3.16;49.52
83941;BME280;73976;68.386;23.636;2024-03-17T12:02:01;98396.31;;;-1.95;47.62
83941;BME280;73976;68.386;23.636;2024-03-17T12:06:05;98325.53;;;-2.33;47.37
83941;BME280;73976;68.386;23.636;2024-03-17T12:10:12;98401.88;;;-2.40;49.39
83941;BME280;73976;68.386;23.636;2024-03-17T12:14:19;98404.97;;;-2.74;50.26
83941;BME280;73976;68.386;23.636;2024-03-17T12:18:21;98378.84;;;-2.84;49.67
83941;BME280;73976;68.386;23.636;2024-03-17T12:22:24;98355.78;;;-3.41;50.87
83941;BME280;73976;68.386;23.636;2024-03-17T12:26:27;98368.03;;;-3.31;50.93
83941;BME280;73976;68.386;23.636;2024-03-17T12:30:29;98318.00;;;-3.42;48.50
83941;BME280;73976;68.386;23.636;2024-03-17T12:34:31;98354.16;;;-3.70;50.66
83941;BME280;73976;68.386;23.636;2024-03-17T12:38:33;98342.59;;;-4.07;51.55
83941;BME280;73976;68.386;23.636;2024-03-17T12:42:34;98275.53;;;-4.65;51.12
83941;BME280;73976;68.386;23.636;2024-03-17T12:46:38;98329.69;;;-4.51;51.58
83941;BME280;73976;68.386;23.636;2024-03-17T12:50:45;98311.88;;;-4.40;53.26
83941;BME280;73976;68.386;23.636;2024-03-17T12:55:18;98417.13;;;-2.62;49.68
83941;BME280;73976;68.386;23.636;2024-03-17T12:59:39;98387.63;;;-1.81;46.20
83941;BME280;73976;68.386;23.636;2024-03-17T13:04:05;98421.09;;;-1.41;46.25
83941;BME280;73976;68.386;23.636;2024-03-17T13:08:10;98446.78;;;-1.13;45.29
83941;BME280;73976;68.386;23.636;2024-03-17T13:12:14;98444.81;;;-1.22;46.31
83941;BME280;73976;68.386;23.636;2024-03-17T13:16:16;98356.13;;;-1.50;44.51
83941;BME280;73976;68.386;23.636;2024-03-17T13:20:18;98387.53;;;-1.55;45.46
83941;BME280;73976;68.386;23.636;2024-03-17T13:24:19;98365.03;;;-1.92;46.33
83941;BME280;73976;68.386;23.636;2024-03-17T13:28:21;98393.13;;;-1.73;46.34
83941;BME280;73976;68.386;23.636;2024-03-17T13:32:22;98429.19;;;-2.10;47.81
83941;BME280;73976;68.386;23.636;2024-03-17T13:36:24;98407.75;;;-2.51;48.16
83941;BME280;73976;68.386;23.636;2024-03-17T13:40:25;98428.06;;;-2.85;48.90
83941;BME280;73976;68.386;23.636;2024-03-17T13:44:27;98414.72;;;-3.48;49.37
83941;BME280;73976;68.386;23.636;2024-03-17T13:48:28;98432.56;;;-3.73;51.83
83941;BME280;73976;68.386;23.636;2024-03-17T13:52:30;98435.09;;;-4.01;52.68
83941;BME280;73976;68.386;23.636;2024-03-17T13:56:31;98417.78;;;-4.29;52.94
83941;BME280;73976;68.386;23.636;2024-03-17T14:00:33;98420.88;;;-4.38;51.67
83941;BME280;73976;68.386;23.636;2024-03-17T14:04:39;98368.09;;;-4.76;53.15
83941;BME280;73976;68.386;23.636;2024-03-17T14:08:40;98398.06;;;-4.75;52.49
83941;BME280;73976;68.386;23.636;2024-03-17T14:12:41;98421.72;;;-4.53;52.47
83941;BME280;73976;68.386;23.636;2024-03-17T14:16:43;98328.16;;;-4.98;51.84
83941;BME280;73976;68.386;23.636;2024-03-17T14:20:45;98416.00;;;-4.58;51.78
83941;BME280;73976;68.386;23.636;2024-03-17T14:24:47;98419.19;;;-4.68;52.88
83941;BME280;73976;68.386;23.636;2024-03-17T14:28:50;98418.69;;;-4.75;54.57
83941;BME280;73976;68.386;23.636;2024-03-17T14:32:52;98406.31;;;-4.84;52.97
83941;BME280;73976;68.386;23.636;2024-03-17T14:36:54;98419.84;;;-4.96;53.44
83941;BME280;73976;68.386;23.636;2024-03-17T14:40:55;98410.06;;;-4.89;53.00
83941;BME280;73976;68.386;23.636;2024-03-17T14:44:57;98398.16;;;-4.92;53.86
83941;BME280;73976;68.386;23.636;2024-03-17T14:48:58;98356.69;;;-5.34;52.72
83941;BME280;73976;68.386;23.636;2024-03-17T14:53:00;98361.59;;;-5.29;53.72
83941;BME280;73976;68.386;23.636;2024-03-17T14:57:01;98393.84;;;-4.91;53.48
83941;BME280;73976;68.386;23.636;2024-03-17T15:01:03;98394.41;;;-5.02;52.61
83941;BME280;73976;68.386;23.636;2024-03-17T15:05:05;98399.56;;;-5.02;52.99
83941;BME280;73976;68.386;23.636;2024-03-17T15:09:07;98390.09;;;-5.17;53.12
83941;BME280;73976;68.386;23.636;2024-03-17T15:13:09;98400.22;;;-5.14;53.98
83941;BME280;73976;68.386;23.636;2024-03-17T15:17:10;98403.94;;;-5.19;53.48
83941;BME280;73976;68.386;23.636;2024-03-17T15:21:12;98404.19;;;-5.24;52.75
83941;BME280;73976;68.386;23.636;2024-03-17T15:25:14;98402.63;;;-5.26;54.74
83941;BME280;73976;68.386;23.636;2024-03-17T15:29:15;98406.03;;;-5.26;53.19
83941;BME280;73976;68.386;23.636;2024-03-17T15:33:17;98392.06;;;-5.22;51.54
83941;BME280;73976;68.386;23.636;2024-03-17T15:37:19;98389.41;;;-5.20;52.87
83941;BME280;73976;68.386;23.636;2024-03-17T15:41:20;98381.94;;;-5.25;52.71
83941;BME280;73976;68.386;23.636;2024-03-17T15:45:22;98386.94;;;-5.22;50.95
83941;BME280;73976;68.386;23.636;2024-03-17T15:49:26;98381.94;;;-5.25;54.81
83941;BME280;73976;68.386;23.636;2024-03-17T15:53:27;98377.72;;;-5.26;51.79
83941;BME280;73976;68.386;23.636;2024-03-17T15:57:29;98381.28;;;-5.28;53.06
83941;BME280;73976;68.386;23.636;2024-03-17T16:01:31;98374.78;;;-5.35;51.51
83941;BME280;73976;68.386;23.636;2024-03-17T16:05:33;98370.91;;;-5.42;51.96
83941;BME280;73976;68.386;23.636;2024-03-17T16:09:35;98374.44;;;-5.45;52.61
83941;BME280;73976;68.386;23.636;2024-03-17T16:13:45;98362.06;;;-5.54;51.61
83941;BME280;73976;68.386;23.636;2024-03-17T16:17:47;98351.00;;;-5.72;51.58
83941;BME280;73976;68.386;23.636;2024-03-17T16:21:50;98343.19;;;-5.70;51.96
83941;BME280;73976;68.386;23.636;2024-03-17T16:25:52;98351.31;;;-5.78;53.92
83941;BME280;73976;68.386;23.636;2024-03-17T16:29:59;98341.38;;;-5.84;52.45
83941;BME280;73976;68.386;23.636;2024-03-17T16:34:02;98300.81;;;-6.11;54.62
83941;BME280;73976;68.386;23.636;2024-03-17T16:38:05;98317.31;;;-5.98;53.00
83941;BME280;73976;68.386;23.636;2024-03-17T16:42:06;98327.19;;;-5.91;55.16
83941;BME280;73976;68.386;23.636;2024-03-17T16:50:28;98233.09;;;-6.43;51.87
83941;BME280;73976;68.386;23.636;2024-03-17T16:54:40;98288.25;;;-6.00;52.72
83941;BME280;73976;68.386;23.636;2024-03-17T16:58:44;98326.84;;;-5.69;52.53
83941;BME280;73976;68.386;23.636;2024-03-17T17:02:46;98311.56;;;-5.72;52.67
83941;BME280;73976;68.386;23.636;2024-03-17T17:06:48;98311.56;;;-5.72;54.63
83941;BME280;73976;68.386;23.636;2024-03-17T17:10:49;98292.59;;;-5.85;54.92
83941;BME280;73976;68.386;23.636;2024-03-17T17:14:51;98281.56;;;-5.87;54.08
83941;BME280;73976;68.386;23.636;2024-03-17T17:18:54;98293.56;;;-5.72;53.70
83941;BME280;73976;68.386;23.636;2024-03-17T17:22:58;98282.78;;;-5.63;52.64
83941;BME280;73976;68.386;23.636;2024-03-17T17:27:01;98200.41;;;-6.08;53.09
83941;BME280;73976;68.386;23.636;2024-03-17T17:31:05;98180.19;;;-6.14;53.31
83941;BME280;73976;68.386;23.636;2024-03-17T17:35:07;98224.59;;;-5.95;54.70
83941;BME280;73976;68.386;23.636;2024-03-17T17:39:10;98086.03;;;-6.79;52.23
83941;BME280;73976;68.386;23.636;2024-03-17T17:43:13;98202.91;;;-6.07;53.22
83941;BME280;73976;68.386;23.636;2024-03-17T17:47:16;98242.91;;;-6.01;54.24
83941;BME280;73976;68.386;23.636;2024-03-17T17:51:20;98270.69;;;-5.61;54.80
83941;BME280;73976;68.386;23.636;2024-03-17T17:59:10;98249.44;;;-5.64;55.36
83941;BME280;73976;68.386;23.636;2024-03-17T18:03:12;98245.97;;;-5.63;55.32
83941;BME280;73976;68.386;23.636;2024-03-17T18:07:13;98226.88;;;-5.59;53.77
83941;BME280;73976;68.386;23.636;2024-03-17T18:11:20;98238.81;;;-5.58;55.96
83941;BME280;73976;68.386;23.636;2024-03-17T18:15:21;98202.31;;;-5.81;55.50
83941;BME280;73976;68.386;23.636;2024-03-17T18:19:23;98220.88;;;-5.60;54.20
83941;BME280;73976;68.386;23.636;2024-03-17T18:23:24;98203.72;;;-5.75;54.02
83941;BME280;73976;68.386;23.636;2024-03-17T18:27:26;98206.72;;;-5.67;53.56
83941;BME280;73976;68.386;23.636;2024-03-17T18:31:27;98198.16;;;-5.68;55.64
83941;BME280;73976;68.386;23.636;2024-03-17T18:35:29;98136.66;;;-6.02;55.35
83941;BME280;73976;68.386;23.636;2024-03-17T18:39:31;98122.75;;;-6.13;53.24
83941;BME280;73976;68.386;23.636;2024-03-17T18:43:34;98148.25;;;-5.95;55.44
83941;BME280;73976;68.386;23.636;2024-03-17T18:47:35;98184.81;;;-5.74;53.28
83941;BME280;73976;68.386;23.636;2024-03-17T18:51:39;98183.06;;;-5.74;54.39
83941;BME280;73976;68.386;23.636;2024-03-17T18:55:40;98107.66;;;-6.19;54.50
83941;BME280;73976;68.386;23.636;2024-03-17T18:59:42;98063.41;;;-6.55;53.99
83941;BME280;73976;68.386;23.636;2024-03-17T19:03:43;98166.69;;;-5.87;54.79
83941;BME280;73976;68.386;23.636;2024-03-17T19:07:45;98165.28;;;-5.92;53.95
83941;BME280;73976;68.386;23.636;2024-03-17T19:11:50;98162.72;;;-5.92;53.62
83941;BME280;73976;68.386;23.636;2024-03-17T19:16:03;98153.97;;;-6.05;53.74
83941;BME280;73976;68.386;23.636;2024-03-17T19:20:08;98152.75;;;-5.98;54.42
83941;BME280;73976;68.386;23.636;2024-03-17T19:24:17;98140.06;;;-6.01;53.66
83941;BME280;73976;68.386;23.636;2024-03-17T19:28:19;98117.28;;;-6.07;53.17
83941;BME280;73976;68.386;23.636;2024-03-17T19:32:20;98116.94;;;-6.01;55.12
83941;BME280;73976;68.386;23.636;2024-03-17T19:36:21;98125.53;;;-6.02;55.18
83941;BME280;73976;68.386;23.636;2024-03-17T19:40:23;98116.09;;;-6.02;54.20
83941;BME280;73976;68.386;23.636;2024-03-17T19:44:25;98120.41;;;-6.02;55.46
83941;BME280;73976;68.386;23.636;2024-03-17T19:48:26;98067.84;;;-6.28;55.43
83941;BME280;73976;68.386;23.636;2024-03-17T19:52:27;98092.97;;;-6.02;54.50
83941;BME280;73976;68.386;23.636;2024-03-17T19:56:29;97991.72;;;-6.60;55.59
83941;BME280;73976;68.386;23.636;2024-03-17T20:00:30;98078.72;;;-6.07;54.25
83941;BME280;73976;68.386;23.636;2024-03-17T20:04:32;98076.66;;;-6.16;56.17
83941;BME280;73976;68.386;23.636;2024-03-17T20:08:33;98081.28;;;-6.23;54.26
83941;BME280;73976;68.386;23.636;2024-03-17T20:12:35;98064.72;;;-6.33;54.33
83941;BME280;73976;68.386;23.636;2024-03-17T20:16:36;98060.88;;;-6.41;55.08
83941;BME280;73976;68.386;23.636;2024-03-17T20:20:38;97903.22;;;-7.30;55.28
83941;BME280;73976;68.386;23.636;2024-03-17T20:24:40;97997.78;;;-6.76;53.59
83941;BME280;73976;68.386;23.636;2024-03-17T20:28:45;98041.16;;;-6.56;54.89
83941;BME280;73976;68.386;23.636;2024-03-17T20:32:49;98030.50;;;-6.64;52.38
83941;BME280;73976;68.386;23.636;2024-03-17T20:36:51;98029.50;;;-6.62;54.35
83941;BME280;73976;68.386;23.636;2024-03-17T20:40:53;98016.31;;;-6.71;56.09
83941;BME280;73976;68.386;23.636;2024-03-17T20:44:54;98028.25;;;-6.70;55.34
83941;BME280;73976;68.386;23.636;2024-03-17T20:48:56;98032.63;;;-6.72;54.25
83941;BME280;73976;68.386;23.636;2024-03-17T20:52:57;98031.72;;;-6.71;55.36
83941;BME280;73976;68.386;23.636;2024-03-17T20:56:58;98036.38;;;-6.78;54.81
83941;BME280;73976;68.386;23.636;2024-03-17T21:01:00;98026.91;;;-6.77;53.53
83941;BME280;73976;68.386;23.636;2024-03-17T21:05:01;98026.25;;;-6.81;54.87
83941;BME280;73976;68.386;23.636;2024-03-17T21:09:05;98012.75;;;-6.84;55.51
83941;BME280;73976;68.386;23.636;2024-03-17T21:13:07;98005.97;;;-6.85;56.72
83941;BME280;73976;68.386;23.636;2024-03-17T21:17:08;98004.06;;;-6.82;55.00
83941;BME280;73976;68.386;23.636;2024-03-17T21:21:10;97993.47;;;-6.91;57.50